sensor_id;sensor_type;location;lat;lon;timestamp;P1;durP1;ratioP1;P2;durP2;ratioP2
68438;SDS011;55421;51.600;5.718;2023-02-13T00:00:33;39.80;;;18.50;;
68438;SDS011;55421;51.600;5.718;2023-02-13T00:03:18;38.70;;;19.00;;
68438;SDS011;55421;51.600;5.718;2023-02-13T00:05:44;44.20;;;20.10;;
68438;SDS011;55421;51.600;5.718;2023-02-13T00:08:13;44.70;;;20.10;;
68438;SDS011;55421;51.600;5.718;2023-02-13T00:10:39;43.00;;;19.10;;
68438;SDS011;55421;51.600;5.718;2023-02-13T00:13:06;41.60;;;19.40;;
68438;SDS011;55421;51.600;5.718;2023-02-13T00:15:32;41.10;;;18.30;;
68438;SDS011;55421;51.600;5.718;2023-02-13T00:18:00;39.50;;;18.40;;
68438;SDS011;55421;51.600;5.718;2023-02-13T00:20:27;39.90;;;20.10;;
68438;SDS011;55421;51.600;5.718;2023-02-13T00:22:53;45.70;;;20.30;;
68438;SDS011;55421;51.600;5.718;2023-02-13T00:25:20;43.10;;;18.60;;
68438;SDS011;55421;51.600;5.718;2023-02-13T00:27:47;39.80;;;19.20;;
68438;SDS011;55421;51.600;5.718;2023-02-13T00:30:14;43.90;;;19.10;;
68438;SDS011;55421;51.600;5.718;2023-02-13T00:32:41;43.30;;;20.00;;
68438;SDS011;55421;51.600;5.718;2023-02-13T00:35:08;38.00;;;19.20;;
68438;SDS011;55421;51.600;5.718;2023-02-13T00:37:34;41.50;;;20.20;;
68438;SDS011;55421;51.600;5.718;2023-02-13T00:40:01;44.50;;;20.80;;
68438;SDS011;55421;51.600;5.718;2023-02-13T00:42:27;45.70;;;21.20;;
68438;SDS011;55421;51.600;5.718;2023-02-13T00:44:54;45.60;;;20.80;;
68438;SDS011;55421;51.600;5.718;2023-02-13T00:47:20;44.10;;;19.60;;
68438;SDS011;55421;51.600;5.718;2023-02-13T00:49:47;41.90;;;19.40;;
68438;SDS011;55421;51.600;5.718;2023-02-13T00:52:13;41.10;;;19.20;;
68438;SDS011;55421;51.600;5.718;2023-02-13T00:54:40;42.90;;;20.40;;
68438;SDS011;55421;51.600;5.718;2023-02-13T00:57:06;47.00;;;21.50;;
68438;SDS011;55421;51.600;5.718;2023-02-13T00:59:33;44.80;;;20.90;;
68438;SDS011;55421;51.600;5.718;2023-02-13T01:01:59;40.50;;;18.90;;
68438;SDS011;55421;51.600;5.718;2023-02-13T01:04:26;46.60;;;20.30;;
68438;SDS011;55421;51.600;5.718;2023-02-13T01:06:52;41.50;;;20.00;;
68438;SDS011;55421;51.600;5.718;2023-02-13T01:09:21;41.20;;;19.20;;
68438;SDS011;55421;51.600;5.718;2023-02-13T01:11:47;39.10;;;19.40;;
68438;SDS011;55421;51.600;5.718;2023-02-13T01:14:13;42.00;;;20.20;;
68438;SDS011;55421;51.600;5.718;2023-02-13T01:16:40;47.00;;;21.80;;
68438;SDS011;55421;51.600;5.718;2023-02-13T01:19:06;41.00;;;20.30;;
68438;SDS011;55421;51.600;5.718;2023-02-13T01:21:33;43.00;;;18.80;;
68438;SDS011;55421;51.600;5.718;2023-02-13T01:24:03;40.20;;;19.60;;
68438;SDS011;55421;51.600;5.718;2023-02-13T01:26:30;40.70;;;19.50;;
68438;SDS011;55421;51.600;5.718;2023-02-13T01:28:57;41.00;;;19.90;;
68438;SDS011;55421;51.600;5.718;2023-02-13T01:31:24;43.70;;;20.70;;
68438;SDS011;55421;51.600;5.718;2023-02-13T01:33:51;40.80;;;20.50;;
68438;SDS011;55421;51.600;5.718;2023-02-13T01:36:17;41.90;;;20.60;;
68438;SDS011;55421;51.600;5.718;2023-02-13T01:38:44;40.20;;;19.80;;
68438;SDS011;55421;51.600;5.718;2023-02-13T01:41:10;41.10;;;19.90;;
68438;SDS011;55421;51.600;5.718;2023-02-13T01:46:22;42.90;;;20.10;;
68438;SDS011;55421;51.600;5.718;2023-02-13T01:48:58;42.80;;;20.80;;
68438;SDS011;55421;51.600;5.718;2023-02-13T01:51:59;41.50;;;20.60;;
68438;SDS011;55421;51.600;5.718;2023-02-13T01:54:28;46.60;;;19.70;;
68438;SDS011;55421;51.600;5.718;2023-02-13T01:57:01;42.50;;;20.60;;
68438;SDS011;55421;51.600;5.718;2023-02-13T01:59:54;43.20;;;19.80;;
68438;SDS011;55421;51.600;5.718;2023-02-13T02:02:24;42.90;;;20.60;;
68438;SDS011;55421;51.600;5.718;2023-02-13T02:04:51;44.10;;;21.30;;
68438;SDS011;55421;51.600;5.718;2023-02-13T02:07:24;46.40;;;21.90;;
68438;SDS011;55421;51.600;5.718;2023-02-13T02:09:55;42.00;;;20.90;;
68438;SDS011;55421;51.600;5.718;2023-02-13T02:12:35;43.10;;;20.30;;
68438;SDS011;55421;51.600;5.718;2023-02-13T02:15:07;41.90;;;19.20;;
68438;SDS011;55421;51.600;5.718;2023-02-13T02:17:35;40.60;;;19.80;;
68438;SDS011;55421;51.600;5.718;2023-02-13T02:26:20;47.00;;;22.60;;
68438;SDS011;55421;51.600;5.718;2023-02-13T02:35:13;38.10;;;19.90;;
68438;SDS011;55421;51.600;5.718;2023-02-13T02:38:00;42.90;;;21.00;;
68438;SDS011;55421;51.600;5.718;2023-02-13T02:46:15;42.80;;;21.00;;
68438;SDS011;55421;51.600;5.718;2023-02-13T02:48:56;42.00;;;21.00;;
68438;SDS011;55421;51.600;5.718;2023-02-13T02:52:05;41.80;;;20.20;;
68438;SDS011;55421;51.600;5.718;2023-02-13T02:54:48;40.10;;;19.90;;
68438;SDS011;55421;51.600;5.718;2023-02-13T02:57:41;44.00;;;21.60;;
68438;SDS011;55421;51.600;5.718;2023-02-13T03:00:32;43.50;;;21.70;;
68438;SDS011;55421;51.600;5.718;2023-02-13T03:03:28;42.90;;;19.40;;
68438;SDS011;55421;51.600;5.718;2023-02-13T03:06:19;41.80;;;19.30;;
68438;SDS011;55421;51.600;5.718;2023-02-13T03:08:54;39.50;;;19.50;;
68438;SDS011;55421;51.600;5.718;2023-02-13T03:11:48;40.70;;;20.10;;
68438;SDS011;55421;51.600;5.718;2023-02-13T03:14:36;43.50;;;20.90;;
68438;SDS011;55421;51.600;5.718;2023-02-13T03:17:03;45.90;;;22.20;;
68438;SDS011;55421;51.600;5.718;2023-02-13T03:23:05;43.50;;;19.60;;
68438;SDS011;55421;51.600;5.718;2023-02-13T03:28:51;34.60;;;17.90;;
68438;SDS011;55421;51.600;5.718;2023-02-13T03:31:53;44.50;;;20.30;;
68438;SDS011;55421;51.600;5.718;2023-02-13T03:34:35;41.80;;;19.40;;
68438;SDS011;55421;51.600;5.718;2023-02-13T03:37:30;40.70;;;17.40;;
68438;SDS011;55421;51.600;5.718;2023-02-13T03:40:27;37.60;;;19.10;;
68438;SDS011;55421;51.600;5.718;2023-02-13T03:43:10;39.40;;;18.60;;
68438;SDS011;55421;51.600;5.718;2023-02-13T03:45:45;33.80;;;18.10;;
68438;SDS011;55421;51.600;5.718;2023-02-13T03:48:34;39.80;;;19.30;;
68438;SDS011;55421;51.600;5.718;2023-02-13T03:51:50;39.10;;;18.90;;
68438;SDS011;55421;51.600;5.718;2023-02-13T03:54:33;37.20;;;17.50;;
68438;SDS011;55421;51.600;5.718;2023-02-13T03:57:28;35.90;;;17.90;;
68438;SDS011;55421;51.600;5.718;2023-02-13T04:00:16;35.30;;;17.00;;
68438;SDS011;55421;51.600;5.718;2023-02-13T04:03:34;38.70;;;19.20;;
68438;SDS011;55421;51.600;5.718;2023-02-13T04:06:33;38.90;;;18.90;;
68438;SDS011;55421;51.600;5.718;2023-02-13T04:09:04;36.40;;;17.70;;
68438;SDS011;55421;51.600;5.718;2023-02-13T04:14:52;32.60;;;16.70;;
68438;SDS011;55421;51.600;5.718;2023-02-13T04:17:29;36.00;;;18.00;;
68438;SDS011;55421;51.600;5.718;2023-02-13T04:20:03;37.20;;;17.80;;
68438;SDS011;55421;51.600;5.718;2023-02-13T04:22:31;35.80;;;18.30;;
68438;SDS011;55421;51.600;5.718;2023-02-13T04:24:57;34.40;;;18.00;;
68438;SDS011;55421;51.600;5.718;2023-02-13T04:27:26;39.10;;;17.60;;
68438;SDS011;55421;51.600;5.718;2023-02-13T04:29:53;38.00;;;17.80;;
68438;SDS011;55421;51.600;5.718;2023-02-13T04:32:20;34.60;;;16.70;;
68438;SDS011;55421;51.600;5.718;2023-02-13T04:34:47;35.60;;;18.20;;
68438;SDS011;55421;51.600;5.718;2023-02-13T04:37:13;36.00;;;18.20;;
68438;SDS011;55421;51.600;5.718;2023-02-13T04:39:39;41.10;;;19.70;;
68438;SDS011;55421;51.600;5.718;2023-02-13T04:42:06;35.90;;;18.10;;
68438;SDS011;55421;51.600;5.718;2023-02-13T04:44:32;37.70;;;17.60;;
68438;SDS011;55421;51.600;5.718;2023-02-13T04:46:59;36.90;;;17.90;;
68438;SDS011;55421;51.600;5.718;2023-02-13T04:49:25;36.20;;;16.90;;
68438;SDS011;55421;51.600;5.718;2023-02-13T04:51:52;34.80;;;17.10;;
68438;SDS011;55421;51.600;5.718;2023-02-13T04:54:18;34.40;;;16.30;;
68438;SDS011;55421;51.600;5.718;2023-02-13T04:56:44;34.20;;;17.00;;
68438;SDS011;55421;51.600;5.718;2023-02-13T04:59:11;32.70;;;16.80;;
68438;SDS011;55421;51.600;5.718;2023-02-13T05:01:37;34.10;;;18.10;;
68438;SDS011;55421;51.600;5.718;2023-02-13T05:04:04;37.20;;;19.10;;
68438;SDS011;55421;51.600;5.718;2023-02-13T05:06:30;36.50;;;16.30;;
68438;SDS011;55421;51.600;5.718;2023-02-13T05:08:57;31.20;;;15.90;;
68438;SDS011;55421;51.600;5.718;2023-02-13T05:11:23;33.40;;;16.80;;
68438;SDS011;55421;51.600;5.718;2023-02-13T05:13:50;37.30;;;17.50;;
68438;SDS011;55421;51.600;5.718;2023-02-13T05:16:16;33.70;;;16.50;;
68438;SDS011;55421;51.600;5.718;2023-02-13T05:18:43;34.90;;;17.30;;
68438;SDS011;55421;51.600;5.718;2023-02-13T05:21:09;37.90;;;17.70;;
68438;SDS011;55421;51.600;5.718;2023-02-13T05:23:54;36.90;;;18.60;;
68438;SDS011;55421;51.600;5.718;2023-02-13T05:26:21;34.00;;;16.40;;
68438;SDS011;55421;51.600;5.718;2023-02-13T05:28:47;32.30;;;14.80;;
68438;SDS011;55421;51.600;5.718;2023-02-13T05:31:32;29.80;;;14.80;;
68438;SDS011;55421;51.600;5.718;2023-02-13T05:34:31;31.20;;;15.90;;
68438;SDS011;55421;51.600;5.718;2023-02-13T05:37:01;33.30;;;16.50;;
68438;SDS011;55421;51.600;5.718;2023-02-13T05:39:28;36.20;;;17.70;;
68438;SDS011;55421;51.600;5.718;2023-02-13T05:41:54;25.50;;;14.10;;
68438;SDS011;55421;51.600;5.718;2023-02-13T05:44:21;30.00;;;15.30;;
68438;SDS011;55421;51.600;5.718;2023-02-13T05:46:47;23.70;;;12.70;;
68438;SDS011;55421;51.600;5.718;2023-02-13T05:49:14;32.00;;;15.50;;
68438;SDS011;55421;51.600;5.718;2023-02-13T05:51:41;29.40;;;15.00;;
68438;SDS011;55421;51.600;5.718;2023-02-13T05:54:08;28.70;;;14.70;;
68438;SDS011;55421;51.600;5.718;2023-02-13T05:56:35;27.30;;;14.40;;
68438;SDS011;55421;51.600;5.718;2023-02-13T05:59:01;30.40;;;15.70;;
68438;SDS011;55421;51.600;5.718;2023-02-13T06:01:28;27.20;;;13.60;;
68438;SDS011;55421;51.600;5.718;2023-02-13T06:03:55;28.50;;;13.70;;
68438;SDS011;55421;51.600;5.718;2023-02-13T06:06:21;28.30;;;14.40;;
68438;SDS011;55421;51.600;5.718;2023-02-13T06:08:48;25.30;;;14.20;;
68438;SDS011;55421;51.600;5.718;2023-02-13T06:11:15;23.50;;;13.40;;
68438;SDS011;55421;51.600;5.718;2023-02-13T06:13:41;29.10;;;14.80;;
68438;SDS011;55421;51.600;5.718;2023-02-13T06:16:11;25.10;;;13.50;;
68438;SDS011;55421;51.600;5.718;2023-02-13T06:18:38;25.70;;;13.10;;
68438;SDS011;55421;51.600;5.718;2023-02-13T06:21:06;27.00;;;14.10;;
68438;SDS011;55421;51.600;5.718;2023-02-13T06:23:34;23.10;;;11.40;;
68438;SDS011;55421;51.600;5.718;2023-02-13T06:26:02;23.30;;;13.20;;
68438;SDS011;55421;51.600;5.718;2023-02-13T06:28:30;27.90;;;15.10;;
68438;SDS011;55421;51.600;5.718;2023-02-13T06:30:57;24.60;;;13.40;;
68438;SDS011;55421;51.600;5.718;2023-02-13T06:33:23;21.60;;;12.30;;
68438;SDS011;55421;51.600;5.718;2023-02-13T06:35:50;18.10;;;10.70;;
68438;SDS011;55421;51.600;5.718;2023-02-13T06:38:17;16.20;;;10.70;;
68438;SDS011;55421;51.600;5.718;2023-02-13T06:40:47;17.10;;;10.70;;
68438;SDS011;55421;51.600;5.718;2023-02-13T06:43:15;13.80;;;9.00;;
68438;SDS011;55421;51.600;5.718;2023-02-13T06:45:43;14.10;;;9.30;;
68438;SDS011;55421;51.600;5.718;2023-02-13T06:48:12;13.90;;;9.00;;
68438;SDS011;55421;51.600;5.718;2023-02-13T06:50:39;11.10;;;8.50;;
68438;SDS011;55421;51.600;5.718;2023-02-13T06:53:05;13.60;;;8.60;;
68438;SDS011;55421;51.600;5.718;2023-02-13T06:55:32;12.90;;;8.60;;
68438;SDS011;55421;51.600;5.718;2023-02-13T06:57:58;16.20;;;9.60;;
68438;SDS011;55421;51.600;5.718;2023-02-13T07:00:25;15.70;;;10.30;;
68438;SDS011;55421;51.600;5.718;2023-02-13T07:02:52;14.00;;;9.40;;
68438;SDS011;55421;51.600;5.718;2023-02-13T07:05:19;19.60;;;12.30;;
68438;SDS011;55421;51.600;5.718;2023-02-13T07:07:45;16.20;;;10.10;;
68438;SDS011;55421;51.600;5.718;2023-02-13T07:10:12;13.70;;;8.70;;
68438;SDS011;55421;51.600;5.718;2023-02-13T07:12:39;17.70;;;11.30;;
68438;SDS011;55421;51.600;5.718;2023-02-13T07:15:06;16.40;;;10.10;;
68438;SDS011;55421;51.600;5.718;2023-02-13T07:17:33;20.10;;;11.50;;
68438;SDS011;55421;51.600;5.718;2023-02-13T07:20:00;22.90;;;13.00;;
68438;SDS011;55421;51.600;5.718;2023-02-13T07:22:27;22.30;;;11.60;;
68438;SDS011;55421;51.600;5.718;2023-02-13T07:24:53;22.50;;;12.00;;
68438;SDS011;55421;51.600;5.718;2023-02-13T07:27:20;15.80;;;9.30;;
68438;SDS011;55421;51.600;5.718;2023-02-13T07:29:46;11.60;;;8.40;;
68438;SDS011;55421;51.600;5.718;2023-02-13T07:32:13;11.10;;;8.10;;
68438;SDS011;55421;51.600;5.718;2023-02-13T07:34:40;12.10;;;8.20;;
68438;SDS011;55421;51.600;5.718;2023-02-13T07:37:09;11.30;;;8.30;;
68438;SDS011;55421;51.600;5.718;2023-02-13T07:39:36;13.50;;;9.50;;
68438;SDS011;55421;51.600;5.718;2023-02-13T07:42:04;10.60;;;7.60;;
68438;SDS011;55421;51.600;5.718;2023-02-13T07:44:31;11.40;;;7.70;;
68438;SDS011;55421;51.600;5.718;2023-02-13T07:46:58;13.00;;;8.40;;
68438;SDS011;55421;51.600;5.718;2023-02-13T07:49:26;15.50;;;8.40;;
68438;SDS011;55421;51.600;5.718;2023-02-13T07:51:55;15.00;;;8.60;;
68438;SDS011;55421;51.600;5.718;2023-02-13T07:54:23;15.40;;;9.00;;
68438;SDS011;55421;51.600;5.718;2023-02-13T07:56:49;13.80;;;7.90;;
68438;SDS011;55421;51.600;5.718;2023-02-13T07:59:16;12.40;;;6.90;;
68438;SDS011;55421;51.600;5.718;2023-02-13T08:01:42;11.90;;;7.10;;
68438;SDS011;55421;51.600;5.718;2023-02-13T08:04:09;12.40;;;7.10;;
68438;SDS011;55421;51.600;5.718;2023-02-13T08:06:38;13.20;;;7.50;;
68438;SDS011;55421;51.600;5.718;2023-02-13T08:09:05;15.20;;;9.00;;
68438;SDS011;55421;51.600;5.718;2023-02-13T08:11:52;18.60;;;11.20;;
68438;SDS011;55421;51.600;5.718;2023-02-13T08:14:23;21.50;;;11.80;;
68438;SDS011;55421;51.600;5.718;2023-02-13T08:16:52;22.70;;;12.60;;
68438;SDS011;55421;51.600;5.718;2023-02-13T08:19:20;22.50;;;11.90;;
68438;SDS011;55421;51.600;5.718;2023-02-13T08:21:46;25.80;;;14.70;;
68438;SDS011;55421;51.600;5.718;2023-02-13T08:24:13;26.50;;;14.50;;
68438;SDS011;55421;51.600;5.718;2023-02-13T08:26:39;31.80;;;16.70;;
68438;SDS011;55421;51.600;5.718;2023-02-13T08:29:06;35.30;;;18.50;;
68438;SDS011;55421;51.600;5.718;2023-02-13T08:31:33;32.40;;;18.10;;
68438;SDS011;55421;51.600;5.718;2023-02-13T08:34:00;32.30;;;18.00;;
68438;SDS011;55421;51.600;5.718;2023-02-13T08:36:26;32.40;;;17.30;;
68438;SDS011;55421;51.600;5.718;2023-02-13T08:38:53;32.10;;;17.90;;
68438;SDS011;55421;51.600;5.718;2023-02-13T08:41:20;33.50;;;19.60;;
68438;SDS011;55421;51.600;5.718;2023-02-13T08:43:48;36.40;;;19.60;;
68438;SDS011;55421;51.600;5.718;2023-02-13T08:46:16;35.50;;;19.00;;
68438;SDS011;55421;51.600;5.718;2023-02-13T08:48:43;34.70;;;18.80;;
68438;SDS011;55421;51.600;5.718;2023-02-13T08:51:11;30.40;;;17.70;;
68438;SDS011;55421;51.600;5.718;2023-02-13T08:53:39;32.00;;;18.00;;
68438;SDS011;55421;51.600;5.718;2023-02-13T08:56:06;37.70;;;19.80;;
68438;SDS011;55421;51.600;5.718;2023-02-13T08:58:32;34.40;;;18.70;;
68438;SDS011;55421;51.600;5.718;2023-02-13T09:00:59;33.20;;;17.50;;
68438;SDS011;55421;51.600;5.718;2023-02-13T09:03:30;31.30;;;17.50;;
68438;SDS011;55421;51.600;5.718;2023-02-13T09:06:00;31.40;;;17.30;;
68438;SDS011;55421;51.600;5.718;2023-02-13T09:08:28;31.90;;;18.10;;
68438;SDS011;55421;51.600;5.718;2023-02-13T09:10:58;36.90;;;19.40;;
68438;SDS011;55421;51.600;5.718;2023-02-13T09:13:28;33.30;;;17.50;;
68438;SDS011;55421;51.600;5.718;2023-02-13T09:16:00;32.30;;;16.80;;
68438;SDS011;55421;51.600;5.718;2023-02-13T09:18:27;29.90;;;16.60;;
68438;SDS011;55421;51.600;5.718;2023-02-13T09:21:08;31.70;;;16.30;;
68438;SDS011;55421;51.600;5.718;2023-02-13T09:23:39;30.50;;;16.80;;
68438;SDS011;55421;51.600;5.718;2023-02-13T09:26:09;34.70;;;19.00;;
68438;SDS011;55421;51.600;5.718;2023-02-13T09:28:38;34.20;;;18.70;;
68438;SDS011;55421;51.600;5.718;2023-02-13T09:31:13;31.40;;;17.30;;
68438;SDS011;55421;51.600;5.718;2023-02-13T09:33:43;33.20;;;17.20;;
68438;SDS011;55421;51.600;5.718;2023-02-13T09:36:13;30.10;;;16.10;;
68438;SDS011;55421;51.600;5.718;2023-02-13T09:38:41;31.60;;;16.60;;
68438;SDS011;55421;51.600;5.718;2023-02-13T09:41:15;31.70;;;18.10;;
68438;SDS011;55421;51.600;5.718;2023-02-13T09:43:58;34.00;;;18.80;;
68438;SDS011;55421;51.600;5.718;2023-02-13T09:46:32;27.90;;;15.60;;
68438;SDS011;55421;51.600;5.718;2023-02-13T09:49:06;32.70;;;16.20;;
68438;SDS011;55421;51.600;5.718;2023-02-13T09:51:35;26.30;;;14.60;;
68438;SDS011;55421;51.600;5.718;2023-02-13T09:54:04;31.00;;;15.30;;
68438;SDS011;55421;51.600;5.718;2023-02-13T09:56:55;31.00;;;16.20;;
68438;SDS011;55421;51.600;5.718;2023-02-13T10:05:39;27.80;;;15.90;;
68438;SDS011;55421;51.600;5.718;2023-02-13T10:14:54;30.70;;;17.40;;
68438;SDS011;55421;51.600;5.718;2023-02-13T10:17:43;32.60;;;17.50;;
68438;SDS011;55421;51.600;5.718;2023-02-13T10:20:36;30.80;;;17.20;;
68438;SDS011;55421;51.600;5.718;2023-02-13T10:23:18;27.60;;;15.30;;
68438;SDS011;55421;51.600;5.718;2023-02-13T10:26:00;26.20;;;15.00;;
68438;SDS011;55421;51.600;5.718;2023-02-13T10:28:37;27.40;;;16.30;;
68438;SDS011;55421;51.600;5.718;2023-02-13T10:31:14;30.60;;;17.40;;
68438;SDS011;55421;51.600;5.718;2023-02-13T10:33:49;29.70;;;16.10;;
68438;SDS011;55421;51.600;5.718;2023-02-13T10:36:21;30.20;;;18.10;;
68438;SDS011;55421;51.600;5.718;2023-02-13T10:41:51;28.00;;;15.60;;
68438;SDS011;55421;51.600;5.718;2023-02-13T10:44:33;26.20;;;15.20;;
68438;SDS011;55421;51.600;5.718;2023-02-13T10:53:17;31.30;;;17.50;;
68438;SDS011;55421;51.600;5.718;2023-02-13T10:56:28;30.40;;;17.70;;
68438;SDS011;55421;51.600;5.718;2023-02-13T10:59:13;28.00;;;16.50;;
68438;SDS011;55421;51.600;5.718;2023-02-13T11:01:56;27.00;;;15.10;;
68438;SDS011;55421;51.600;5.718;2023-02-13T11:04:28;26.10;;;14.30;;
68438;SDS011;55421;51.600;5.718;2023-02-13T11:06:57;26.10;;;16.10;;
68438;SDS011;55421;51.600;5.718;2023-02-13T11:11:53;27.40;;;15.90;;
68438;SDS011;55421;51.600;5.718;2023-02-13T11:14:20;25.40;;;15.20;;
68438;SDS011;55421;51.600;5.718;2023-02-13T11:16:50;30.90;;;17.10;;
68438;SDS011;55421;51.600;5.718;2023-02-13T11:19:24;25.90;;;15.20;;
68438;SDS011;55421;51.600;5.718;2023-02-13T11:21:59;25.50;;;13.90;;
68438;SDS011;55421;51.600;5.718;2023-02-13T11:24:30;28.50;;;15.60;;
68438;SDS011;55421;51.600;5.718;2023-02-13T11:27:04;27.70;;;15.20;;
68438;SDS011;55421;51.600;5.718;2023-02-13T11:29:36;28.50;;;16.30;;
68438;SDS011;55421;51.600;5.718;2023-02-13T11:34:52;29.30;;;16.00;;
68438;SDS011;55421;51.600;5.718;2023-02-13T11:37:26;29.20;;;16.10;;
68438;SDS011;55421;51.600;5.718;2023-02-13T11:39:57;29.90;;;15.70;;
68438;SDS011;55421;51.600;5.718;2023-02-13T11:42:35;24.90;;;14.30;;
68438;SDS011;55421;51.600;5.718;2023-02-13T11:45:19;27.80;;;15.80;;
68438;SDS011;55421;51.600;5.718;2023-02-13T11:47:48;26.60;;;15.30;;
68438;SDS011;55421;51.600;5.718;2023-02-13T11:50:31;26.50;;;14.90;;
68438;SDS011;55421;51.600;5.718;2023-02-13T11:53:19;25.60;;;15.40;;
68438;SDS011;55421;51.600;5.718;2023-02-13T11:58:30;22.60;;;13.90;;
68438;SDS011;55421;51.600;5.718;2023-02-13T12:07:19;25.10;;;14.60;;
68438;SDS011;55421;51.600;5.718;2023-02-13T12:12:42;25.80;;;14.40;;
68438;SDS011;55421;51.600;5.718;2023-02-13T12:15:17;24.00;;;13.60;;
68438;SDS011;55421;51.600;5.718;2023-02-13T12:17:51;22.60;;;13.80;;
68438;SDS011;55421;51.600;5.718;2023-02-13T12:20:26;26.30;;;13.90;;
68438;SDS011;55421;51.600;5.718;2023-02-13T12:23:05;25.90;;;15.80;;
68438;SDS011;55421;51.600;5.718;2023-02-13T12:26:01;20.20;;;11.80;;
68438;SDS011;55421;51.600;5.718;2023-02-13T12:29:01;22.40;;;12.00;;
68438;SDS011;55421;51.600;5.718;2023-02-13T12:34:24;25.40;;;13.20;;
68438;SDS011;55421;51.600;5.718;2023-02-13T12:37:35;21.40;;;12.20;;
68438;SDS011;55421;51.600;5.718;2023-02-13T12:49:07;26.40;;;14.60;;
68438;SDS011;55421;51.600;5.718;2023-02-13T12:57:55;23.50;;;14.80;;
68438;SDS011;55421;51.600;5.718;2023-02-13T13:01:03;26.40;;;14.60;;
68438;SDS011;55421;51.600;5.718;2023-02-13T13:13:08;21.10;;;13.30;;
68438;SDS011;55421;51.600;5.718;2023-02-13T13:19:12;24.90;;;14.40;;
68438;SDS011;55421;51.600;5.718;2023-02-13T13:22:08;25.00;;;14.80;;
68438;SDS011;55421;51.600;5.718;2023-02-13T13:27:51;28.10;;;14.70;;
68438;SDS011;55421;51.600;5.718;2023-02-13T13:30:26;26.60;;;16.60;;
68438;SDS011;55421;51.600;5.718;2023-02-13T13:33:21;27.90;;;16.20;;
68438;SDS011;55421;51.600;5.718;2023-02-13T13:38:47;26.90;;;16.20;;
68438;SDS011;55421;51.600;5.718;2023-02-13T13:41:38;23.80;;;14.50;;
68438;SDS011;55421;51.600;5.718;2023-02-13T13:50:26;25.40;;;15.60;;
68438;SDS011;55421;51.600;5.718;2023-02-13T13:58:40;25.30;;;14.60;;
68438;SDS011;55421;51.600;5.718;2023-02-13T14:03:45;24.00;;;14.60;;
68438;SDS011;55421;51.600;5.718;2023-02-13T14:06:17;24.50;;;14.20;;
68438;SDS011;55421;51.600;5.718;2023-02-13T14:08:53;25.50;;;15.20;;
68438;SDS011;55421;51.600;5.718;2023-02-13T14:11:36;21.00;;;13.40;;
68438;SDS011;55421;51.600;5.718;2023-02-13T14:16:59;23.70;;;14.30;;
68438;SDS011;55421;51.600;5.718;2023-02-13T14:19:39;24.10;;;14.70;;
68438;SDS011;55421;51.600;5.718;2023-02-13T14:25:04;24.90;;;14.70;;
68438;SDS011;55421;51.600;5.718;2023-02-13T14:27:34;24.40;;;15.40;;
68438;SDS011;55421;51.600;5.718;2023-02-13T14:30:05;26.20;;;15.60;;
68438;SDS011;55421;51.600;5.718;2023-02-13T14:32:52;21.40;;;14.20;;
68438;SDS011;55421;51.600;5.718;2023-02-13T14:35:25;24.50;;;14.30;;
68438;SDS011;55421;51.600;5.718;2023-02-13T14:37:57;23.30;;;14.60;;
68438;SDS011;55421;51.600;5.718;2023-02-13T14:40:48;22.50;;;14.10;;
68438;SDS011;55421;51.600;5.718;2023-02-13T14:46:20;24.40;;;14.50;;
68438;SDS011;55421;51.600;5.718;2023-02-13T14:48:54;22.10;;;14.00;;
68438;SDS011;55421;51.600;5.718;2023-02-13T14:51:37;23.70;;;14.70;;
68438;SDS011;55421;51.600;5.718;2023-02-13T14:54:17;25.10;;;15.10;;
68438;SDS011;55421;51.600;5.718;2023-02-13T14:57:03;18.50;;;12.00;;
68438;SDS011;55421;51.600;5.718;2023-02-13T14:59:48;18.00;;;11.70;;
68438;SDS011;55421;51.600;5.718;2023-02-13T15:02:27;21.10;;;12.80;;
68438;SDS011;55421;51.600;5.718;2023-02-13T15:05:03;24.40;;;13.50;;
68438;SDS011;55421;51.600;5.718;2023-02-13T15:07:35;24.30;;;14.50;;
68438;SDS011;55421;51.600;5.718;2023-02-13T15:10:39;22.60;;;14.00;;
68438;SDS011;55421;51.600;5.718;2023-02-13T15:15:55;25.90;;;15.30;;
68438;SDS011;55421;51.600;5.718;2023-02-13T15:18:29;20.90;;;12.80;;
68438;SDS011;55421;51.600;5.718;2023-02-13T15:21:00;19.20;;;12.10;;
68438;SDS011;55421;51.600;5.718;2023-02-13T15:23:29;18.80;;;12.30;;
68438;SDS011;55421;51.600;5.718;2023-02-13T15:26:03;20.20;;;13.20;;
68438;SDS011;55421;51.600;5.718;2023-02-13T15:28:32;23.60;;;13.90;;
68438;SDS011;55421;51.600;5.718;2023-02-13T15:31:05;26.50;;;13.20;;
68438;SDS011;55421;51.600;5.718;2023-02-13T15:33:49;21.10;;;13.10;;
68438;SDS011;55421;51.600;5.718;2023-02-13T15:36:21;21.20;;;13.60;;
68438;SDS011;55421;51.600;5.718;2023-02-13T15:39:04;22.20;;;13.90;;
68438;SDS011;55421;51.600;5.718;2023-02-13T15:41:38;21.60;;;13.60;;
68438;SDS011;55421;51.600;5.718;2023-02-13T15:44:21;20.90;;;13.10;;
68438;SDS011;55421;51.600;5.718;2023-02-13T15:46:51;19.70;;;12.40;;
68438;SDS011;55421;51.600;5.718;2023-02-13T15:49:22;20.80;;;12.90;;
68438;SDS011;55421;51.600;5.718;2023-02-13T15:52:02;19.50;;;13.20;;
68438;SDS011;55421;51.600;5.718;2023-02-13T15:54:50;23.00;;;13.60;;
68438;SDS011;55421;51.600;5.718;2023-02-13T15:57:19;23.70;;;13.70;;
68438;SDS011;55421;51.600;5.718;2023-02-13T15:59:47;25.10;;;14.90;;
68438;SDS011;55421;51.600;5.718;2023-02-13T16:02:39;24.00;;;13.80;;
68438;SDS011;55421;51.600;5.718;2023-02-13T16:05:11;20.90;;;12.70;;
68438;SDS011;55421;51.600;5.718;2023-02-13T16:07:47;23.40;;;14.00;;
68438;SDS011;55421;51.600;5.718;2023-02-13T16:10:37;24.30;;;14.10;;
68438;SDS011;55421;51.600;5.718;2023-02-13T16:13:05;22.00;;;13.90;;
68438;SDS011;55421;51.600;5.718;2023-02-13T16:15:34;24.00;;;13.80;;
68438;SDS011;55421;51.600;5.718;2023-02-13T16:18:02;24.30;;;15.00;;
68438;SDS011;55421;51.600;5.718;2023-02-13T16:20:33;26.40;;;14.80;;
68438;SDS011;55421;51.600;5.718;2023-02-13T16:23:06;25.30;;;14.90;;
68438;SDS011;55421;51.600;5.718;2023-02-13T16:25:41;24.00;;;13.30;;
68438;SDS011;55421;51.600;5.718;2023-02-13T16:30:38;27.00;;;15.80;;
68438;SDS011;55421;51.600;5.718;2023-02-13T16:38:32;31.10;;;17.60;;
68438;SDS011;55421;51.600;5.718;2023-02-13T16:46:32;24.60;;;14.30;;
68438;SDS011;55421;51.600;5.718;2023-02-13T16:51:54;24.30;;;14.70;;
68438;SDS011;55421;51.600;5.718;2023-02-13T16:54:28;25.20;;;14.90;;
68438;SDS011;55421;51.600;5.718;2023-02-13T16:57:02;26.10;;;14.70;;
68438;SDS011;55421;51.600;5.718;2023-02-13T16:59:36;29.10;;;15.10;;
68438;SDS011;55421;51.600;5.718;2023-02-13T17:05:12;24.80;;;14.80;;
68438;SDS011;55421;51.600;5.718;2023-02-13T17:07:49;24.30;;;13.70;;
68438;SDS011;55421;51.600;5.718;2023-02-13T17:12:49;24.10;;;14.20;;
68438;SDS011;55421;51.600;5.718;2023-02-13T17:15:20;26.90;;;14.90;;
68438;SDS011;55421;51.600;5.718;2023-02-13T17:17:49;26.20;;;15.30;;
68438;SDS011;55421;51.600;5.718;2023-02-13T17:20:24;25.60;;;15.20;;
68438;SDS011;55421;51.600;5.718;2023-02-13T17:23:03;29.70;;;16.30;;
68438;SDS011;55421;51.600;5.718;2023-02-13T17:25:35;24.90;;;14.00;;
68438;SDS011;55421;51.600;5.718;2023-02-13T17:28:22;24.10;;;13.40;;
68438;SDS011;55421;51.600;5.718;2023-02-13T17:30:54;32.20;;;13.60;;
68438;SDS011;55421;51.600;5.718;2023-02-13T17:33:27;24.90;;;14.30;;